createdAt,value
2024-02-18T00:00:56.061Z,94200.00
2024-02-18T00:01:56.059Z,94202.00
2024-02-18T00:02:56.055Z,94202.00
2024-02-18T00:03:56.174Z,94205.00
2024-02-18T00:04:56.212Z,94208.00
2024-02-18T00:05:56.320Z,94209.00
2024-02-18T00:06:56.273Z,94210.00
2024-02-18T00:07:56.203Z,94209.00
2024-02-18T00:08:56.235Z,94213.00
2024-02-18T00:09:56.305Z,94214.00
2024-02-18T00:10:56.292Z,94214.00
2024-02-18T00:11:56.319Z,94215.00
2024-02-18T00:12:56.420Z,94218.00
2024-02-18T00:13:56.422Z,94220.00
2024-02-18T00:14:56.422Z,94222.00
2024-02-18T00:15:56.517Z,94221.00
2024-02-18T00:16:56.522Z,94223.00
2024-02-18T00:17:56.627Z,94222.00
2024-02-18T00:18:56.669Z,94223.00
2024-02-18T00:19:56.626Z,94222.00
2024-02-18T00:20:56.622Z,94221.00
2024-02-18T00:21:56.688Z,94224.00
2024-02-18T00:22:56.689Z,94221.00
2024-02-18T00:23:56.731Z,94222.00
2024-02-18T00:24:56.805Z,94222.00
2024-02-18T00:25:56.792Z,94221.00
2024-02-18T00:26:58.909Z,94219.00
2024-02-18T00:27:56.921Z,94218.00
2024-02-18T00:28:56.814Z,94216.00
2024-02-18T00:29:56.790Z,94215.00
2024-02-18T00:30:56.797Z,94212.00
2024-02-18T00:31:56.734Z,94213.00
2024-02-18T00:32:56.915Z,94212.00
2024-02-18T00:33:56.845Z,94211.00
2024-02-18T00:34:56.793Z,94212.00
2024-02-18T00:35:56.670Z,94212.00
2024-02-18T00:36:56.683Z,94211.00
2024-02-18T00:37:58.862Z,94211.00
2024-02-18T00:38:56.603Z,94210.00
2024-02-18T00:39:56.658Z,94210.00
2024-02-18T00:40:56.617Z,94208.00
2024-02-18T00:41:56.636Z,94208.00
2024-02-18T00:42:56.703Z,94209.00
2024-02-18T00:43:56.737Z,94207.00
2024-02-18T00:44:56.754Z,94207.00
2024-02-18T00:45:56.838Z,94207.00
2024-02-18T00:47:04.748Z,94205.00
2024-02-18T00:47:57.876Z,94204.00
2024-02-18T00:48:56.846Z,94205.00
2024-02-18T00:49:56.890Z,94203.00
2024-02-18T00:50:56.709Z,94203.00
2024-02-18T00:51:56.759Z,94206.00
2024-02-18T00:52:56.674Z,94202.00
2024-02-18T00:53:56.648Z,94199.00
2024-02-18T00:54:56.685Z,94199.00
2024-02-18T00:55:56.633Z,94197.00
2024-02-18T00:56:56.617Z,94194.00
2024-02-18T00:57:56.710Z,94196.00
2024-02-18T00:58:56.666Z,94196.00
2024-02-18T00:59:56.706Z,94192.00
2024-02-18T01:00:56.819Z,94193.00
2024-02-18T01:01:56.824Z,94193.00
2024-02-18T01:02:56.872Z,94193.00
2024-02-18T01:03:56.895Z,94194.00
2024-02-18T01:04:56.858Z,94195.00
2024-02-18T01:05:56.960Z,94195.00
2024-02-18T01:06:56.979Z,94196.00
2024-02-18T01:07:56.969Z,94199.00
2024-02-18T01:08:56.994Z,94201.00
2024-02-18T01:09:57.076Z,94203.00
2024-02-18T01:10:57.219Z,94204.00
2024-02-18T01:11:57.102Z,94204.00
2024-02-18T01:12:57.226Z,94204.00
2024-02-18T01:13:57.166Z,94206.00
2024-02-18T01:14:57.195Z,94206.00
2024-02-18T01:15:57.322Z,94206.00
2024-02-18T01:16:57.266Z,94208.00
2024-02-18T01:17:57.325Z,94208.00
2024-02-18T01:18:57.490Z,94208.00
2024-02-18T01:19:57.370Z,94207.00
2024-02-18T01:20:57.391Z,94209.00
2024-02-18T01:21:57.438Z,94212.00
2024-02-18T01:22:57.454Z,94210.00
2024-02-18T01:23:57.487Z,94212.00
2024-02-18T01:24:57.593Z,94210.00
2024-02-18T01:25:57.546Z,94208.00
2024-02-18T01:26:57.571Z,94206.00
2024-02-18T01:27:57.710Z,94201.00
2024-02-18T01:28:57.632Z,94203.00
2024-02-18T01:29:57.665Z,94200.00
2024-02-18T01:30:57.997Z,94200.00
2024-02-18T01:31:57.797Z,94200.00
2024-02-18T01:32:57.821Z,94199.00
2024-02-18T01:33:57.844Z,94198.00
2024-02-18T01:34:57.800Z,94198.00
2024-02-18T01:35:57.824Z,94197.00
2024-02-18T01:36:57.924Z,94196.00
2024-02-18T01:37:57.881Z,94195.00
2024-02-18T01:38:57.904Z,94195.00
2024-02-18T01:39:57.993Z,94195.00
2024-02-18T01:40:57.969Z,94194.00
2024-02-18T01:41:58.007Z,94193.00
2024-02-18T01:42:58.151Z,94193.00
2024-02-18T01:43:58.060Z,94197.00
2024-02-18T01:44:58.106Z,94200.00
2024-02-18T01:45:58.161Z,94201.00
2024-02-18T01:46:58.189Z,94202.00
2024-02-18T01:47:58.221Z,94204.00
2024-02-18T01:48:58.288Z,94203.00
2024-02-18T01:49:58.339Z,94200.00
2024-02-18T01:50:58.307Z,94204.00
2024-02-18T01:51:58.354Z,94202.00
2024-02-18T01:52:58.358Z,94203.00
2024-02-18T01:53:58.389Z,94203.00
2024-02-18T01:54:58.477Z,94204.00
2024-02-18T01:55:58.451Z,94200.00
2024-02-18T01:56:58.480Z,94200.00
2024-02-18T01:57:58.576Z,94198.00
2024-02-18T01:58:58.563Z,94199.00
2024-02-18T01:59:58.621Z,94197.00
2024-02-18T02:00:58.787Z,94197.00
2024-02-18T02:01:58.685Z,94197.00
2024-02-18T02:02:58.690Z,94197.00
2024-02-18T02:03:58.815Z,94198.00
2024-02-18T02:04:58.903Z,94196.00
2024-02-18T02:05:58.817Z,94196.00
2024-02-18T02:06:58.878Z,94196.00
2024-02-18T02:07:58.847Z,94197.00
2024-02-18T02:08:58.880Z,94195.00
2024-02-18T02:09:59.086Z,94194.00
2024-02-18T02:10:58.994Z,94192.00
2024-02-18T02:11:58.975Z,94190.00
2024-02-18T02:12:59.069Z,94190.00
2024-02-18T02:13:59.049Z,94191.00
2024-02-18T02:14:59.090Z,94189.00
2024-02-18T02:15:59.193Z,94189.00
2024-02-18T02:16:59.149Z,94187.00
2024-02-18T02:17:59.291Z,94187.00
2024-02-18T02:18:59.266Z,94185.00
2024-02-18T02:19:59.313Z,94185.00
2024-02-18T02:20:59.270Z,94185.00
2024-02-18T02:21:59.357Z,94185.00
2024-02-18T02:22:59.313Z,94187.00
2024-02-18T02:23:59.340Z,94186.00
2024-02-18T02:24:59.418Z,94186.00
2024-02-18T02:25:59.422Z,94186.00
2024-02-18T02:26:59.425Z,94184.00
2024-02-18T02:27:59.531Z,94184.00
2024-02-18T02:28:59.472Z,94183.00
2024-02-18T02:29:59.505Z,94182.00
2024-02-18T02:30:59.588Z,94182.00
2024-02-18T02:31:59.565Z,94177.00
2024-02-18T02:32:59.656Z,94177.00
2024-02-18T02:33:59.711Z,94173.00
2024-02-18T02:34:59.690Z,94174.00
2024-02-18T02:35:59.677Z,94172.00
2024-02-18T02:36:59.785Z,94173.00
2024-02-18T02:37:59.743Z,94171.00
2024-02-18T02:38:59.759Z,94175.00
2024-02-18T02:39:59.967Z,94173.00
2024-02-18T02:40:59.813Z,94173.00
2024-02-18T02:41:59.853Z,94176.00
2024-02-18T02:42:59.990Z,94177.00
2024-02-18T02:43:59.936Z,94178.00
2024-02-18T02:44:59.950Z,94178.00
2024-02-18T02:46:00.592Z,94175.00
2024-02-18T02:47:00.020Z,94173.00
2024-02-18T02:48:00.087Z,94175.00
2024-02-18T02:49:00.171Z,94175.00
2024-02-18T02:50:00.258Z,94176.00
2024-02-18T02:51:00.134Z,94178.00
2024-02-18T02:52:00.285Z,94174.00
2024-02-18T02:53:00.200Z,94177.00
2024-02-18T02:54:00.235Z,94177.00
2024-02-18T02:55:00.385Z,94175.00
2024-02-18T02:56:00.304Z,94175.00
2024-02-18T02:57:00.339Z,94173.00
2024-02-18T02:58:00.415Z,94170.00
2024-02-18T02:59:00.400Z,94166.00
2024-02-18T03:00:00.464Z,94167.00
2024-02-18T03:01:00.561Z,94163.00
2024-02-18T03:02:00.583Z,94164.00
2024-02-18T03:03:00.550Z,94162.00
2024-02-18T03:04:00.681Z,94162.00
2024-02-18T03:05:00.811Z,94162.00
2024-02-18T03:06:00.670Z,94162.00
2024-02-18T03:07:00.685Z,94165.00
2024-02-18T03:08:00.699Z,94164.00
2024-02-18T03:09:00.722Z,94168.00
2024-02-18T03:10:00.840Z,94166.00
2024-02-18T03:11:00.785Z,94167.00
2024-02-18T03:12:00.849Z,94165.00
2024-02-18T03:13:00.894Z,94163.00
2024-02-18T03:14:00.873Z,94161.00
2024-02-18T03:15:00.913Z,94163.00
2024-02-18T03:16:01.219Z,94160.00
2024-02-18T03:17:00.982Z,94160.00
2024-02-18T03:18:01.118Z,94162.00
2024-02-18T03:19:01.138Z,94161.00
2024-02-18T03:20:01.324Z,94163.00
2024-02-18T03:21:01.106Z,94162.00
2024-02-18T03:22:01.166Z,94163.00
2024-02-18T03:23:01.162Z,94163.00
2024-02-18T03:24:01.200Z,94163.00
2024-02-18T03:25:01.416Z,94160.00
2024-02-18T03:26:01.258Z,94160.00
2024-02-18T03:27:01.307Z,94161.00
2024-02-18T03:28:01.480Z,94161.00
2024-02-18T03:29:01.374Z,94160.00
2024-02-18T03:30:01.447Z,94163.00
2024-02-18T03:31:01.498Z,94163.00
2024-02-18T03:32:01.467Z,94163.00
2024-02-18T03:33:01.570Z,94165.00
2024-02-18T03:34:01.714Z,94163.00
2024-02-18T03:35:01.650Z,94163.00
2024-02-18T03:36:01.583Z,94163.00
2024-02-18T03:37:01.754Z,94163.00
2024-02-18T03:38:01.656Z,94162.00
2024-02-18T03:39:01.727Z,94163.00
2024-02-18T03:40:01.811Z,94164.00
2024-02-18T03:41:01.771Z,94163.00
2024-02-18T03:42:01.776Z,94166.00
2024-02-18T03:43:01.916Z,94165.00
2024-02-18T03:44:01.847Z,94167.00
2024-02-18T03:45:02.043Z,94170.00
2024-02-18T03:46:01.948Z,94170.00
2024-02-18T03:47:01.941Z,94171.00
2024-02-18T03:48:01.995Z,94172.00
2024-02-18T03:49:02.047Z,94172.00
2024-02-18T03:50:02.068Z,94174.00
2024-02-18T03:51:02.151Z,94176.00
2024-02-18T03:52:03.119Z,94176.00
2024-02-18T03:53:02.084Z,94178.00
2024-02-18T03:54:02.123Z,94177.00
2024-02-18T03:55:02.275Z,94180.00
2024-02-18T03:56:02.177Z,94181.00
2024-02-18T03:57:02.205Z,94180.00
2024-02-18T03:58:02.344Z,94179.00
2024-02-18T03:59:02.311Z,94181.00
2024-02-18T04:00:02.299Z,94183.00
2024-02-18T04:01:02.414Z,94185.00
2024-02-18T04:02:02.397Z,94182.00
2024-02-18T04:03:02.393Z,94182.00
2024-02-18T04:04:02.492Z,94184.00
2024-02-18T04:05:02.521Z,94183.00
2024-02-18T04:06:02.589Z,94182.00
2024-02-18T04:07:02.530Z,94183.00
2024-02-18T04:08:02.542Z,94182.00
2024-02-18T04:09:02.588Z,94183.00
2024-02-18T04:10:02.740Z,94183.00
2024-02-18T04:11:02.632Z,94182.00
2024-02-18T04:12:02.720Z,94181.00
2024-02-18T04:13:02.837Z,94181.00
2024-02-18T04:14:02.725Z,94178.00
2024-02-18T04:15:02.776Z,94178.00
2024-02-18T04:16:02.825Z,94180.00
2024-02-18T04:17:02.809Z,94180.00
2024-02-18T04:18:02.889Z,94179.00
2024-02-18T04:19:03.048Z,94179.00
2024-02-18T04:20:02.997Z,94177.00
2024-02-18T04:21:02.916Z,94177.00
2024-02-18T04:22:03.065Z,94178.00
2024-02-18T04:23:03.072Z,94178.00
2024-02-18T04:24:03.004Z,94177.00
2024-02-18T04:25:03.070Z,94174.00
2024-02-18T04:26:03.069Z,94176.00
2024-02-18T04:27:03.090Z,94175.00
2024-02-18T04:28:03.165Z,94175.00
2024-02-18T04:29:03.167Z,94175.00
2024-02-18T04:30:03.191Z,94174.00
2024-02-18T04:31:03.268Z,94173.00
2024-02-18T04:32:03.245Z,94171.00
2024-02-18T04:33:10.504Z,94169.00
2024-02-18T04:34:10.590Z,94169.00
2024-02-18T04:35:10.513Z,94173.00
2024-02-18T04:36:10.391Z,94170.00
2024-02-18T04:37:10.385Z,94173.00
2024-02-18T04:38:10.342Z,94174.00
2024-02-18T04:39:10.325Z,94175.00
2024-02-18T04:40:10.363Z,94178.00
2024-02-18T04:41:10.307Z,94179.00
2024-02-18T04:42:10.255Z,94180.00
2024-02-18T04:43:10.297Z,94180.00
2024-02-18T04:44:10.206Z,94181.00
2024-02-18T04:45:10.187Z,94182.00
2024-02-18T04:46:10.247Z,94183.00
2024-02-18T04:47:10.146Z,94181.00
2024-02-18T04:48:10.205Z,94183.00
2024-02-18T04:49:10.157Z,94186.00
2024-02-18T04:50:10.075Z,94184.00
2024-02-18T04:51:10.058Z,94184.00
2024-02-18T04:52:10.038Z,94181.00
2024-02-18T04:53:09.997Z,94185.00
2024-02-18T04:54:09.980Z,94182.00
2024-02-18T04:55:10.115Z,94182.00
2024-02-18T04:56:09.937Z,94181.00
2024-02-18T04:57:09.911Z,94182.00
2024-02-18T04:58:09.990Z,94180.00
2024-02-18T04:59:09.880Z,94178.00
2024-02-18T05:00:09.847Z,94177.00
2024-02-18T05:01:09.867Z,94177.00
2024-02-18T05:02:09.798Z,94176.00
2024-02-18T05:03:09.849Z,94178.00
2024-02-18T05:04:09.808Z,94178.00
2024-02-18T05:05:09.786Z,94177.00
2024-02-18T05:06:09.734Z,94177.00
2024-02-18T05:07:09.824Z,94176.00
2024-02-18T05:08:09.836Z,94176.00
2024-02-18T05:09:09.821Z,94174.00
2024-02-18T05:10:09.979Z,94172.00
2024-02-18T05:11:10.589Z,94173.00
2024-02-18T05:12:09.927Z,94174.00
2024-02-18T05:13:10.011Z,94172.00
2024-02-18T05:14:09.966Z,94170.00
2024-02-18T05:15:10.014Z,94171.00
2024-02-18T05:16:10.059Z,94169.00
2024-02-18T05:17:10.060Z,94170.00
2024-02-18T05:18:10.196Z,94169.00
2024-02-18T05:19:10.208Z,94170.00
2024-02-18T05:20:10.157Z,94168.00
2024-02-18T05:21:10.226Z,94169.00
2024-02-18T05:22:10.269Z,94169.00
2024-02-18T05:23:10.242Z,94171.00
2024-02-18T05:24:10.269Z,94172.00
2024-02-18T05:25:10.498Z,94172.00
2024-02-18T05:26:10.346Z,94173.00
2024-02-18T05:27:10.363Z,94169.00
2024-02-18T05:28:10.424Z,94169.00
2024-02-18T05:29:10.411Z,94168.00
2024-02-18T05:30:10.446Z,94169.00
2024-02-18T05:31:10.530Z,94171.00
2024-02-18T05:32:10.518Z,94171.00
2024-02-18T05:33:10.614Z,94171.00
2024-02-18T05:34:10.821Z,94173.00
2024-02-18T05:35:12.133Z,94174.00
2024-02-18T05:36:10.642Z,94175.00
2024-02-18T05:37:10.714Z,94174.00
2024-02-18T05:38:10.708Z,94177.00
2024-02-18T05:39:10.740Z,94175.00
2024-02-18T05:40:10.836Z,94175.00
2024-02-18T05:41:10.820Z,94177.00
2024-02-18T05:42:10.840Z,94178.00
2024-02-18T05:43:10.899Z,94178.00
2024-02-18T05:44:10.910Z,94175.00
2024-02-18T05:45:10.948Z,94175.00
2024-02-18T05:46:11.139Z,94172.00
2024-02-18T05:47:11.001Z,94171.00
2024-02-18T05:48:11.146Z,94168.00
2024-02-18T05:49:11.162Z,94168.00
2024-02-18T05:50:11.176Z,94168.00
2024-02-18T05:51:11.152Z,94168.00
2024-02-18T05:52:11.317Z,94169.00
2024-02-18T05:53:11.192Z,94169.00
2024-02-18T05:54:11.237Z,94171.00
2024-02-18T05:55:11.381Z,94172.00
2024-02-18T05:56:11.310Z,94173.00
2024-02-18T05:57:11.338Z,94170.00
2024-02-18T05:58:11.617Z,94168.00
2024-02-18T05:59:11.401Z,94169.00
2024-02-18T06:00:11.446Z,94170.00
2024-02-18T06:01:11.656Z,94171.00
2024-02-18T06:02:11.499Z,94170.00
2024-02-18T06:03:11.526Z,94172.00
2024-02-18T06:04:11.634Z,94172.00
2024-02-18T06:05:11.617Z,94176.00
2024-02-18T06:06:11.716Z,94178.00
2024-02-18T06:07:11.751Z,94178.00
2024-02-18T06:08:11.700Z,94178.00
2024-02-18T06:09:11.724Z,94180.00
2024-02-18T06:10:11.879Z,94179.00
2024-02-18T06:11:11.866Z,94181.00
2024-02-18T06:12:11.817Z,94180.00
2024-02-18T06:13:11.869Z,94182.00
2024-02-18T06:14:12.682Z,94180.00
2024-02-18T06:15:11.884Z,94184.00
2024-02-18T06:16:12.092Z,94182.00
2024-02-18T06:17:11.942Z,94183.00
2024-02-18T06:18:12.002Z,94184.00
2024-02-18T06:19:15.569Z,94185.00
2024-02-18T06:20:12.970Z,94188.00
2024-02-18T06:21:11.950Z,94187.00
2024-02-18T06:22:12.024Z,94188.00
2024-02-18T06:23:11.903Z,94185.00
2024-02-18T06:24:11.882Z,94189.00
2024-02-18T06:25:11.986Z,94188.00
2024-02-18T06:26:11.825Z,94190.00
2024-02-18T06:27:11.814Z,94190.00
2024-02-18T06:28:11.898Z,94193.00
2024-02-18T06:29:11.766Z,94191.00
2024-02-18T06:30:11.779Z,94192.00
2024-02-18T06:31:11.834Z,94191.00
2024-02-18T06:32:11.870Z,94193.00
2024-02-18T06:33:11.905Z,94191.00
2024-02-18T06:34:12.063Z,94194.00
2024-02-18T06:35:12.030Z,94195.00
2024-02-18T06:36:11.974Z,94196.00
2024-02-18T06:37:12.189Z,94197.00
2024-02-18T06:38:12.058Z,94198.00
2024-02-18T06:39:12.108Z,94200.00
2024-02-18T06:40:12.202Z,94202.00
2024-02-18T06:41:12.259Z,94201.00
2024-02-18T06:42:12.215Z,94201.00
2024-02-18T06:43:12.269Z,94199.00
2024-02-18T06:44:12.285Z,94200.00
2024-02-18T06:45:12.315Z,94198.00
2024-02-18T06:46:13.476Z,94200.00
2024-02-18T06:47:12.365Z,94199.00
2024-02-18T06:48:12.495Z,94199.00
2024-02-18T06:49:12.517Z,94198.00
2024-02-18T06:50:12.482Z,94199.00
2024-02-18T06:51:12.504Z,94200.00
2024-02-18T06:52:12.577Z,94198.00
2024-02-18T06:53:12.576Z,94199.00
2024-02-18T06:54:12.622Z,94198.00
2024-02-18T06:55:12.675Z,94198.00
2024-02-18T06:56:12.668Z,94197.00
2024-02-18T06:57:12.737Z,94195.00
2024-02-18T06:58:12.769Z,94196.00
2024-02-18T06:59:12.768Z,94196.00
2024-02-18T07:00:12.802Z,94196.00
2024-02-18T07:01:12.875Z,94200.00
2024-02-18T07:02:12.917Z,94197.00
2024-02-18T07:03:12.878Z,94201.00
2024-02-18T07:04:13.148Z,94198.00
2024-02-18T07:05:13.201Z,94199.00
2024-02-18T07:06:13.003Z,94199.00
2024-02-18T07:07:13.042Z,94197.00
2024-02-18T07:08:13.034Z,94195.00
2024-02-18T07:09:13.055Z,94193.00
2024-02-18T07:10:13.184Z,94192.00
2024-02-18T07:11:13.175Z,94190.00
2024-02-18T07:12:13.151Z,94189.00
2024-02-18T07:13:13.253Z,94190.00
2024-02-18T07:14:13.225Z,94189.00
2024-02-18T07:15:13.242Z,94188.00
2024-02-18T07:16:13.341Z,94186.00
2024-02-18T07:17:13.320Z,94189.00
2024-02-18T07:18:13.573Z,94191.00
2024-02-18T07:19:13.454Z,94190.00
2024-02-18T07:20:13.496Z,94193.00
2024-02-18T07:21:13.464Z,94196.00
2024-02-18T07:22:13.566Z,94197.00
2024-02-18T07:23:13.535Z,94197.00
2024-02-18T07:24:13.572Z,94199.00
2024-02-18T07:25:13.709Z,94198.00
2024-02-18T07:26:13.650Z,94196.00
2024-02-18T07:27:13.731Z,94195.00
2024-02-18T07:28:13.851Z,94197.00
2024-02-18T07:29:13.740Z,94198.00
2024-02-18T07:30:13.787Z,94198.00
2024-02-18T07:31:13.939Z,94199.00
2024-02-18T07:32:13.861Z,94197.00
2024-02-18T07:33:13.966Z,94197.00
2024-02-18T07:34:14.116Z,94197.00
2024-02-18T07:35:13.985Z,94194.00
2024-02-18T07:36:13.997Z,94196.00
2024-02-18T07:37:14.126Z,94198.00
2024-02-18T07:38:14.067Z,94199.00
2024-02-18T07:39:14.103Z,94197.00
2024-02-18T07:40:14.178Z,94200.00
2024-02-18T07:41:14.180Z,94202.00
2024-02-18T07:42:14.214Z,94203.00
2024-02-18T07:43:14.287Z,94204.00
2024-02-18T07:44:14.281Z,94205.00
2024-02-18T07:45:14.329Z,94203.00
2024-02-18T07:46:14.417Z,94205.00
2024-02-18T07:47:14.396Z,94204.00
2024-02-18T07:48:14.491Z,94206.00
2024-02-18T07:49:14.583Z,94203.00
2024-02-18T07:50:14.618Z,94203.00
2024-02-18T07:51:14.558Z,94202.00
2024-02-18T07:52:14.611Z,94203.00
2024-02-18T07:53:14.611Z,94205.00
2024-02-18T07:54:14.670Z,94203.00
2024-02-18T07:55:14.783Z,94204.00
2024-02-18T07:56:14.730Z,94204.00
2024-02-18T07:57:14.745Z,94205.00
2024-02-18T07:58:14.792Z,94203.00
2024-02-18T07:59:14.824Z,94204.00
2024-02-18T08:00:14.871Z,94205.00
2024-02-18T08:01:15.089Z,94204.00
2024-02-18T08:02:14.918Z,94205.00
2024-02-18T08:03:14.937Z,94207.00
2024-02-18T08:04:15.019Z,94206.00
2024-02-18T08:05:15.114Z,94206.00
2024-02-18T08:06:15.092Z,94207.00
2024-02-18T08:07:15.112Z,94208.00
2024-02-18T08:08:15.128Z,94205.00
2024-02-18T08:09:15.155Z,94206.00
2024-02-18T08:10:15.228Z,94207.00
2024-02-18T08:11:15.274Z,94208.00
2024-02-18T08:12:15.295Z,94207.00
2024-02-18T08:13:15.407Z,94207.00
2024-02-18T08:14:15.353Z,94206.00
2024-02-18T08:15:15.409Z,94207.00
2024-02-18T08:16:15.484Z,94204.00
2024-02-18T08:17:15.481Z,94203.00
2024-02-18T08:18:15.672Z,94203.00
2024-02-18T08:19:15.717Z,94203.00
2024-02-18T08:20:15.600Z,94201.00
2024-02-18T08:21:15.662Z,94199.00
2024-02-18T08:22:15.895Z,94199.00
2024-02-18T08:23:15.796Z,94197.00
2024-02-18T08:24:15.754Z,94197.00
2024-02-18T08:25:15.875Z,94193.00
2024-02-18T08:26:15.867Z,94192.00
2024-02-18T08:27:15.879Z,94191.00
2024-02-18T08:28:15.959Z,94187.00
2024-02-18T08:29:15.963Z,94185.00
2024-02-18T08:30:15.999Z,94183.00
2024-02-18T08:31:16.039Z,94184.00
2024-02-18T08:32:16.060Z,94182.00
2024-02-18T08:33:16.123Z,94178.00
2024-02-18T08:34:16.184Z,94181.00
2024-02-18T08:35:16.270Z,94176.00
2024-02-18T08:36:16.253Z,94177.00
2024-02-18T08:37:16.250Z,94176.00
2024-02-18T08:38:16.274Z,94174.00
2024-02-18T08:39:16.334Z,94176.00
2024-02-18T08:40:16.458Z,94174.00
2024-02-18T08:41:16.433Z,94178.00
2024-02-18T08:42:16.412Z,94177.00
2024-02-18T08:43:16.546Z,94177.00
2024-02-18T08:44:16.491Z,94175.00
2024-02-18T08:45:16.532Z,94175.00
2024-02-18T08:46:16.654Z,94176.00
2024-02-18T08:47:16.581Z,94175.00
2024-02-18T08:48:16.625Z,94172.00
2024-02-18T08:49:16.769Z,94171.00
2024-02-18T08:50:16.731Z,94169.00
2024-02-18T08:51:16.706Z,94169.00
2024-02-18T08:52:16.787Z,94165.00
2024-02-18T08:53:16.773Z,94162.00
2024-02-18T08:54:16.879Z,94161.00
2024-02-18T08:55:16.857Z,94160.00
2024-02-18T08:56:16.866Z,94158.00
2024-02-18T08:57:16.880Z,94159.00
2024-02-18T08:58:16.966Z,94158.00
2024-02-18T08:59:16.934Z,94158.00
2024-02-18T09:00:16.980Z,94158.00
2024-02-18T09:01:17.091Z,94158.00
2024-02-18T09:02:17.044Z,94158.00
2024-02-18T09:03:17.064Z,94158.00
2024-02-18T09:04:17.198Z,94160.00
2024-02-18T09:05:17.215Z,94160.00
2024-02-18T09:06:17.177Z,94157.00
2024-02-18T09:07:17.203Z,94155.00
2024-02-18T09:08:17.199Z,94158.00
2024-02-18T09:09:17.246Z,94158.00
2024-02-18T09:10:17.481Z,94157.00
2024-02-18T09:11:17.471Z,94158.00
2024-02-18T09:12:17.308Z,94157.00
2024-02-18T09:13:17.447Z,94158.00
2024-02-18T09:14:17.370Z,94156.00
2024-02-18T09:15:17.487Z,94155.00
2024-02-18T09:16:17.495Z,94155.00
2024-02-18T09:17:17.444Z,94154.00
2024-02-18T09:18:17.535Z,94156.00
2024-02-18T09:19:17.583Z,94155.00
2024-02-18T09:20:17.652Z,94153.00
2024-02-18T09:21:17.561Z,94152.00
2024-02-18T09:22:17.656Z,94150.00
2024-02-18T09:23:17.602Z,94150.00
2024-02-18T09:24:17.600Z,94150.00
2024-02-18T09:25:17.616Z,94147.00
2024-02-18T09:26:17.626Z,94148.00
2024-02-18T09:27:17.706Z,94144.00
2024-02-18T09:28:17.718Z,94142.00
2024-02-18T09:29:17.706Z,94144.00
2024-02-18T09:30:17.720Z,94142.00
2024-02-18T09:31:17.884Z,94142.00
2024-02-18T09:32:17.776Z,94138.00
2024-02-18T09:33:17.845Z,94139.00
2024-02-18T09:34:18.785Z,94136.00
2024-02-18T09:35:18.021Z,94135.00
2024-02-18T09:36:17.867Z,94133.00
2024-02-18T09:37:17.906Z,94132.00
2024-02-18T09:38:17.886Z,94134.00
2024-02-18T09:39:17.921Z,94133.00
2024-02-18T09:40:17.946Z,94132.00
2024-02-18T09:41:17.968Z,94131.00
2024-02-18T09:42:18.070Z,94129.00
2024-02-18T09:43:17.990Z,94128.00
2024-02-18T09:44:18.020Z,94125.00
2024-02-18T09:45:18.077Z,94126.00
2024-02-18T09:46:18.083Z,94123.00
2024-02-18T09:47:18.077Z,94121.00
2024-02-18T09:48:18.205Z,94121.00
2024-02-18T09:49:18.335Z,94119.00
2024-02-18T09:50:18.140Z,94118.00
2024-02-18T09:51:18.156Z,94116.00
2024-02-18T09:52:18.210Z,94115.00
2024-02-18T09:53:18.209Z,94114.00
2024-02-18T09:54:18.223Z,94112.00
2024-02-18T09:55:18.298Z,94111.00
2024-02-18T09:56:18.280Z,94108.00
2024-02-18T09:57:18.283Z,94108.00
2024-02-18T09:58:18.442Z,94109.00
2024-02-18T09:59:18.330Z,94107.00
2024-02-18T10:00:18.341Z,94105.00
2024-02-18T10:01:18.448Z,94102.00
2024-02-18T10:02:18.388Z,94101.00
2024-02-18T10:03:18.386Z,94099.00
2024-02-18T10:04:19.218Z,94098.00
2024-02-18T10:05:18.458Z,94096.00
2024-02-18T10:06:19.129Z,94094.00
2024-02-18T10:07:18.511Z,94093.00
2024-02-18T10:08:18.483Z,94090.00
2024-02-18T10:09:18.516Z,94087.00
2024-02-18T10:10:18.570Z,94087.00
2024-02-18T10:11:18.645Z,94084.00
2024-02-18T10:12:18.628Z,94083.00
2024-02-18T10:13:18.655Z,94082.00
2024-02-18T10:14:18.723Z,94081.00
2024-02-18T10:15:18.677Z,94080.00
2024-02-18T10:16:18.778Z,94077.00
2024-02-18T10:17:18.729Z,94078.00
2024-02-18T10:18:18.896Z,94075.00
2024-02-18T10:19:18.859Z,94075.00
2024-02-18T10:20:18.817Z,94075.00
2024-02-18T10:21:18.862Z,94072.00
2024-02-18T10:22:18.866Z,94068.00
2024-02-18T10:23:18.892Z,94067.00
2024-02-18T10:24:18.924Z,94064.00
2024-02-18T10:25:19.040Z,94062.00
2024-02-18T10:26:18.980Z,94059.00
2024-02-18T10:27:19.028Z,94057.00
2024-02-18T10:28:19.060Z,94057.00
2024-02-18T10:29:19.067Z,94051.00
2024-02-18T10:30:19.188Z,94049.00
2024-02-18T10:31:19.164Z,94048.00
2024-02-18T10:32:19.172Z,94047.00
2024-02-18T10:33:19.193Z,94044.00
2024-02-18T10:34:19.404Z,94041.00
2024-02-18T10:35:19.495Z,94039.00
2024-02-18T10:36:19.390Z,94040.00
2024-02-18T10:37:19.321Z,94036.00
2024-02-18T10:38:19.326Z,94033.00
2024-02-18T10:39:19.347Z,94031.00
2024-02-18T10:40:19.487Z,94028.00
2024-02-18T10:41:19.430Z,94028.00
2024-02-18T10:42:19.448Z,94026.00
2024-02-18T10:43:19.471Z,94025.00
2024-02-18T10:44:19.528Z,94020.00
2024-02-18T10:45:19.536Z,94019.00
2024-02-18T10:46:19.676Z,94016.00
2024-02-18T10:47:19.586Z,94014.00
2024-02-18T10:48:19.689Z,94011.00
2024-02-18T10:49:19.786Z,94009.00
2024-02-18T10:50:19.653Z,94005.00
2024-02-18T10:51:19.714Z,94003.00
2024-02-18T10:52:19.738Z,94002.00
2024-02-18T10:53:19.733Z,93997.00
2024-02-18T10:54:19.752Z,93993.00
2024-02-18T10:55:19.815Z,93991.00
2024-02-18T10:56:19.837Z,93986.00
2024-02-18T10:57:19.830Z,93986.00
2024-02-18T10:58:19.906Z,93986.00
2024-02-18T10:59:19.898Z,93981.00
2024-02-18T11:00:19.929Z,93982.00
2024-02-18T11:01:20.050Z,93977.00
2024-02-18T11:02:20.057Z,93975.00
2024-02-18T11:03:19.981Z,93972.00
2024-02-18T11:04:20.060Z,93968.00
2024-02-18T11:05:20.066Z,93965.00
2024-02-18T11:06:20.201Z,93959.00
2024-02-18T11:07:20.249Z,93956.00
2024-02-18T11:08:20.108Z,93953.00
2024-02-18T11:09:20.151Z,93955.00
2024-02-18T11:10:20.213Z,93952.00
2024-02-18T11:11:20.212Z,93952.00
2024-02-18T11:12:20.269Z,93952.00
2024-02-18T11:13:20.297Z,93946.00
2024-02-18T11:14:20.247Z,93943.00
2024-02-18T11:15:20.280Z,93941.00
2024-02-18T11:16:20.390Z,93937.00
2024-02-18T11:17:20.340Z,93935.00
2024-02-18T11:18:20.560Z,93933.00
2024-02-18T11:19:20.523Z,93927.00
2024-02-18T11:20:20.404Z,93925.00
2024-02-18T11:21:20.420Z,93923.00
2024-02-18T11:22:20.467Z,93920.00
2024-02-18T11:23:20.457Z,93918.00
2024-02-18T11:24:20.479Z,93917.00
2024-02-18T11:25:20.566Z,93914.00
2024-02-18T11:26:20.536Z,93914.00
2024-02-18T11:27:20.560Z,93914.00
2024-02-18T11:28:20.650Z,93909.00
2024-02-18T11:29:20.597Z,93904.00
2024-02-18T11:30:20.629Z,93903.00
2024-02-18T11:31:20.644Z,93901.00
2024-02-18T11:32:20.684Z,93901.00
2024-02-18T11:33:20.853Z,93899.00
2024-02-18T11:34:20.903Z,93897.00
2024-02-18T11:35:20.834Z,93893.00
2024-02-18T11:36:20.814Z,93891.00
2024-02-18T11:37:20.874Z,93891.00
2024-02-18T11:38:20.827Z,93891.00
2024-02-18T11:39:20.837Z,93888.00
2024-02-18T11:40:21.323Z,93887.00
2024-02-18T11:41:20.867Z,93887.00
2024-02-18T11:42:20.890Z,93883.00
2024-02-18T11:43:20.927Z,93876.00
2024-02-18T11:44:20.926Z,93874.00
2024-02-18T11:45:21.279Z,93871.00